North Bridgton, Maine
Current Conditions -  °F | °C
As of 9:54 AM on Friday 19 Dec 2014 (Local Time) from KIZG Reporting Station
Clear Clear  
Wind Chill: 33°   Ceiling: Unl
Heat Index: 33°   Visibility: 10mi
Dew Point: 22°   Wind: 0mph
Humidity: 64%   Direction: NA
Pressure: 29.92"   Gusts: NA
Location:  44.1°N, 70.7°W
Report Text: KIZG 191454Z AUTO 00000KT 10SM CLR 01/M06 A2992 RMK AO2 SLP138 I3000 T00061056 51023
Loading
Personal Weather Stations






























Interactive Weather Map New forecast layout! Learn more

10-Day Weather Forecast

Advertisements
Track Severe Weather on mobile